Time;durP1;ratioP1;P1;durP2;ratioP2;P2;SDS_P1;SDS_P2;PMS_P1;PMS_P2;Temp;Humidity;BMP_temperature;BMP_pressure;BME280_temperature;BME280_humidity;BME280_pressure;Samples;Min_cycle;Max_cycle;Signal;HPM_P1;HPM_P2
2024/01/11 00:01:03;;;;;;;4.88;1.30;;;6.60;99.90;;;;;;5065695;28;20029;-47
2024/01/11 00:03:28;;;;;;;3.13;1.25;;;6.60;99.90;;;;;;5069229;28;20025;-47
2024/01/11 00:05:54;;;;;;;5.03;1.42;;;6.60;99.90;;;;;;5068815;28;20029;-48
2024/01/11 00:08:19;;;;;;;2.28;1.20;;;6.50;99.90;;;;;;5068514;28;20040;-48
2024/01/11 00:10:45;;;;;;;4.63;1.33;;;6.60;99.90;;;;;;5068391;28;20025;-47
2024/01/11 00:13:11;;;;;;;1.77;1.13;;;6.50;99.90;;;;;;5068927;28;20032;-48
2024/01/11 00:15:36;;;;;;;4.25;1.40;;;6.50;99.90;;;;;;5068434;28;20364;-50
2024/01/11 00:18:02;;;;;;;3.55;1.40;;;6.50;99.90;;;;;;5068616;28;20221;-50
2024/01/11 00:20:28;;;;;;;3.28;1.45;;;6.50;99.90;;;;;;5067706;28;20025;-50
2024/01/11 00:22:54;;;;;;;2.80;1.33;;;6.50;99.90;;;;;;5068538;28;20056;-49
2024/01/11 00:25:19;;;;;;;3.60;1.65;;;6.50;99.90;;;;;;5068378;28;20099;-50
2024/01/11 00:27:45;;;;;;;2.40;1.10;;;6.50;99.90;;;;;;5068533;28;20056;-47
2024/01/11 00:30:11;;;;;;;6.10;1.35;;;6.50;99.90;;;;;;5068517;28;20146;-47
2024/01/11 00:32:36;;;;;;;6.05;1.52;;;6.50;99.90;;;;;;5067394;28;20021;-51
2024/01/11 00:35:03;;;;;;;3.50;1.17;;;6.50;99.90;;;;;;5068380;28;20092;-48
2024/01/11 00:37:28;;;;;;;4.53;1.10;;;6.50;99.90;;;;;;5068368;28;20036;-47
2024/01/11 00:39:54;;;;;;;5.40;1.25;;;6.50;99.90;;;;;;5066995;28;20218;-47
2024/01/11 00:42:19;;;;;;;3.03;1.10;;;6.40;99.90;;;;;;5067864;28;20079;-47
2024/01/11 00:44:45;;;;;;;4.30;1.23;;;6.40;99.90;;;;;;5068358;28;20187;-46
2024/01/11 00:47:11;;;;;;;6.00;1.35;;;6.40;99.90;;;;;;5068304;28;20395;-47
2024/01/11 00:49:36;;;;;;;3.13;1.45;;;6.40;99.90;;;;;;5066966;28;20116;-48
2024/01/11 00:52:02;;;;;;;4.38;1.33;;;6.40;99.90;;;;;;5068196;28;20044;-48
2024/01/11 00:54:28;;;;;;;3.50;1.30;;;6.40;99.90;;;;;;5067573;28;20350;-49
2024/01/11 00:56:53;;;;;;;4.55;1.40;;;6.40;99.90;;;;;;5068038;28;20040;-47
2024/01/11 00:59:19;;;;;;;4.03;1.20;;;6.40;99.90;;;;;;5067907;28;20025;-47
2024/01/11 01:01:48;;;;;;;4.30;1.23;;;6.50;99.90;;;;;;5067884;28;20020;-50
2024/01/11 01:04:14;;;;;;;5.03;1.50;;;6.50;99.90;;;;;;5050183;28;20044;-48
2024/01/11 01:06:41;;;;;;;5.38;1.60;;;6.50;99.90;;;;;;5067822;28;20575;-51
2024/01/11 01:09:06;;;;;;;2.72;1.38;;;6.50;99.90;;;;;;5067870;28;20348;-47
2024/01/11 01:11:32;;;;;;;4.75;1.30;;;6.50;99.90;;;;;;5067672;28;20013;-50
2024/01/11 01:13:58;;;;;;;3.15;1.10;;;6.40;99.90;;;;;;5067190;28;20033;-48
2024/01/11 01:16:23;;;;;;;3.88;1.27;;;6.40;99.90;;;;;;5066569;28;20052;-49
2024/01/11 01:18:49;;;;;;;5.22;1.20;;;6.40;99.90;;;;;;5067623;28;20036;-50
2024/01/11 01:21:15;;;;;;;4.50;1.30;;;6.40;99.90;;;;;;5067454;28;20029;-49
2024/01/11 01:23:40;;;;;;;5.95;1.40;;;6.40;99.90;;;;;;5066727;28;20084;-50
2024/01/11 01:26:06;;;;;;;4.45;1.20;;;6.40;99.90;;;;;;5066983;28;20032;-50
2024/01/11 01:28:32;;;;;;;3.83;1.30;;;6.40;99.90;;;;;;5066376;28;20036;-48
2024/01/11 01:30:58;;;;;;;5.82;1.35;;;6.40;99.90;;;;;;5067372;28;20043;-50
2024/01/11 01:33:23;;;;;;;4.38;1.30;;;6.40;99.90;;;;;;5067227;28;20047;-50
2024/01/11 01:35:49;;;;;;;3.63;1.30;;;6.40;99.90;;;;;;5067039;28;20104;-47
2024/01/11 01:38:15;;;;;;;10.55;1.48;;;6.40;99.90;;;;;;5067114;28;20040;-46
2024/01/11 01:40:40;;;;;;;3.65;1.13;;;6.40;99.90;;;;;;5067229;28;20045;-49
2024/01/11 01:43:10;;;;;;;5.38;1.50;;;6.40;99.90;;;;;;5067196;28;20041;-49
2024/01/11 01:45:35;;;;;;;4.55;1.50;;;6.40;99.90;;;;;;5066871;28;20044;-47
2024/01/11 01:48:02;;;;;;;3.53;1.20;;;6.40;99.90;;;;;;5066868;28;20184;-46
2024/01/11 01:50:27;;;;;;;7.10;1.70;;;6.40;99.90;;;;;;5065881;28;20029;-47
2024/01/11 01:52:53;;;;;;;3.60;1.20;;;6.40;99.90;;;;;;5066884;28;20103;-47
2024/01/11 01:55:19;;;;;;;6.55;1.30;;;6.40;99.90;;;;;;5065909;28;20252;-47
2024/01/11 01:57:45;;;;;;;7.40;1.48;;;6.40;99.90;;;;;;5066782;28;20033;-47
2024/01/11 02:00:11;;;;;;;5.55;1.52;;;6.40;99.90;;;;;;5066841;28;20037;-48
2024/01/11 02:02:37;;;;;;;6.25;1.50;;;6.40;99.90;;;;;;5065775;28;20025;-47
2024/01/11 02:05:03;;;;;;;9.48;2.03;;;6.30;99.90;;;;;;5065789;28;20047;-47
2024/01/11 02:07:29;;;;;;;3.90;1.05;;;6.40;99.90;;;;;;5065705;28;20032;-47
2024/01/11 02:09:55;;;;;;;6.90;1.30;;;6.30;99.90;;;;;;5065674;28;20033;-47
2024/01/11 02:12:20;;;;;;;5.38;1.40;;;6.40;99.90;;;;;;5065658;28;20033;-50
2024/01/11 02:14:46;;;;;;;6.72;1.30;;;6.40;99.90;;;;;;5066078;28;20049;-52
2024/01/11 02:17:12;;;;;;;7.95;1.75;;;6.30;99.90;;;;;;5066143;28;20111;-52
2024/01/11 02:19:38;;;;;;;3.40;1.40;;;6.30;99.90;;;;;;5066571;28;20032;-53
2024/01/11 02:22:08;;;;;;;6.72;1.33;;;6.30;99.90;;;;;;5066255;28;20029;-55
2024/01/11 02:24:33;;;;;;;2.72;1.10;;;6.30;99.90;;;;;;5064924;28;20039;-54
2024/01/11 02:27:00;;;;;;;5.88;1.77;;;6.30;99.90;;;;;;5065233;28;20036;-55
2024/01/11 02:29:26;;;;;;;4.60;1.20;;;6.30;99.90;;;;;;5065988;28;20044;-55
2024/01/11 02:31:52;;;;;;;5.07;1.40;;;6.30;99.90;;;;;;5066310;28;20044;-54
2024/01/11 02:34:18;;;;;;;9.25;1.58;;;6.30;99.90;;;;;;5065643;28;20040;-55
2024/01/11 02:36:44;;;;;;;3.72;1.15;;;6.30;99.90;;;;;;5066184;28;20025;-55
2024/01/11 02:39:10;;;;;;;5.30;1.38;;;6.30;99.90;;;;;;5066168;28;20055;-54
2024/01/11 02:41:36;;;;;;;3.88;1.10;;;6.30;99.90;;;;;;5066010;28;20096;-55
2024/01/11 02:44:02;;;;;;;7.63;1.50;;;6.30;99.90;;;;;;5065241;28;20340;-55
2024/01/11 02:46:27;;;;;;;4.80;1.30;;;6.40;99.90;;;;;;5066105;28;20049;-55
2024/01/11 02:48:53;;;;;;;7.03;1.40;;;6.40;99.90;;;;;;5065433;28;20029;-56
2024/01/11 02:51:19;;;;;;;4.72;1.40;;;6.40;99.90;;;;;;5065870;28;20103;-55
2024/01/11 02:53:44;;;;;;;4.68;1.20;;;6.40;99.90;;;;;;5065010;28;20044;-54
2024/01/11 02:56:10;;;;;;;5.55;1.20;;;6.40;99.90;;;;;;5065644;28;20029;-55
2024/01/11 02:58:35;;;;;;;5.65;1.10;;;6.40;99.90;;;;;;5065875;28;20103;-55
2024/01/11 03:01:01;;;;;;;2.38;1.10;;;6.40;99.90;;;;;;5065827;28;20024;-53
2024/01/11 03:03:27;;;;;;;5.03;1.20;;;6.40;99.90;;;;;;5065683;28;20039;-51
2024/01/11 03:05:53;;;;;;;6.95;1.40;;;6.40;99.90;;;;;;5065284;28;20047;-55
2024/01/11 03:08:18;;;;;;;4.47;1.33;;;6.40;99.90;;;;;;5065706;28;20306;-53
2024/01/11 03:10:44;;;;;;;7.32;1.40;;;6.40;99.90;;;;;;5065740;28;20044;-56
2024/01/11 03:13:09;;;;;;;6.55;1.42;;;6.40;99.90;;;;;;5065693;28;20032;-54
2024/01/11 03:15:35;;;;;;;5.70;1.75;;;6.40;99.90;;;;;;5065281;28;20317;-55
2024/01/11 03:18:01;;;;;;;2.70;1.20;;;6.40;99.90;;;;;;5064562;28;20032;-55
2024/01/11 03:20:26;;;;;;;5.10;1.20;;;6.40;99.90;;;;;;5064373;28;20096;-55
2024/01/11 03:22:52;;;;;;;5.50;1.45;;;6.40;99.90;;;;;;5064517;28;20029;-55
2024/01/11 03:25:18;;;;;;;4.72;1.30;;;6.40;99.90;;;;;;5065690;28;20037;-55
2024/01/11 03:27:44;;;;;;;6.70;1.65;;;6.40;99.90;;;;;;5065310;28;20102;-55
2024/01/11 03:30:10;;;;;;;4.10;1.50;;;6.40;99.90;;;;;;5065494;28;20092;-55
2024/01/11 03:32:35;;;;;;;8.27;1.55;;;6.40;99.90;;;;;;5065490;28;20033;-55
2024/01/11 03:35:01;;;;;;;5.28;1.50;;;6.40;99.90;;;;;;5065372;28;20037;-54
2024/01/11 03:37:27;;;;;;;5.50;2.20;;;6.40;99.90;;;;;;5067158;28;20028;-54
2024/01/11 03:39:52;;;;;;;4.93;1.33;;;6.40;99.90;;;;;;5069287;28;20088;-54
2024/01/11 03:42:18;;;;;;;4.13;1.40;;;6.40;99.90;;;;;;5069349;28;20060;-55
2024/01/11 03:44:44;;;;;;;4.38;1.25;;;6.40;99.90;;;;;;5069444;28;20025;-54
2024/01/11 03:47:09;;;;;;;2.17;1.25;;;6.40;99.90;;;;;;5069366;28;20191;-51
2024/01/11 03:49:35;;;;;;;5.00;1.30;;;6.30;99.90;;;;;;5069250;28;20041;-51
2024/01/11 03:52:01;;;;;;;2.85;1.20;;;6.40;99.90;;;;;;5068031;28;20040;-53
2024/01/11 03:54:26;;;;;;;5.78;1.33;;;6.40;99.90;;;;;;5069027;28;20033;-53
2024/01/11 03:56:52;;;;;;;3.17;1.50;;;6.30;99.90;;;;;;5069232;28;20112;-53
2024/01/11 03:59:17;;;;;;;4.10;1.10;;;6.30;99.90;;;;;;5068983;28;20029;-53
2024/01/11 04:01:43;;;;;;;5.25;1.02;;;6.30;99.90;;;;;;5069027;28;20110;-54
2024/01/11 04:04:10;;;;;;;4.95;1.38;;;6.30;99.90;;;;;;5068974;28;20086;-52
2024/01/11 04:06:35;;;;;;;4.22;0.90;;;6.30;99.90;;;;;;5068965;28;20017;-51
2024/01/11 04:09:01;;;;;;;5.88;2.03;;;6.30;99.90;;;;;;5068859;28;20036;-50
2024/01/11 04:11:30;;;;;;;3.10;1.10;;;6.30;99.90;;;;;;5067971;28;20123;-53
2024/01/11 04:13:55;;;;;;;3.40;1.27;;;6.30;99.90;;;;;;5068485;28;20024;-53
2024/01/11 04:16:22;;;;;;;3.00;1.20;;;6.20;99.90;;;;;;5068754;28;20037;-51
2024/01/11 04:18:47;;;;;;;3.60;1.38;;;6.20;99.90;;;;;;5067613;28;20179;-54
2024/01/11 04:21:23;;;;;;;6.15;1.25;;;6.20;99.90;;;;;;5068401;28;20088;-53
2024/01/11 04:23:49;;;;;;;5.63;1.50;;;6.20;99.90;;;;;;5068412;28;20025;-52
2024/01/11 04:26:15;;;;;;;6.93;1.38;;;6.30;99.90;;;;;;5068488;28;20044;-50
2024/01/11 04:28:40;;;;;;;2.90;0.98;;;6.30;99.90;;;;;;5067479;28;20032;-52
2024/01/11 04:31:08;;;;;;;2.38;1.10;;;6.30;99.90;;;;;;5068567;28;20053;-52
2024/01/11 04:33:34;;;;;;;5.70;1.15;;;6.30;99.90;;;;;;5068198;28;20040;-51
2024/01/11 04:35:59;;;;;;;3.08;1.02;;;6.30;99.90;;;;;;5068449;28;20191;-53
2024/01/11 04:38:25;;;;;;;4.75;1.10;;;6.30;99.90;;;;;;5068324;28;20041;-53
2024/01/11 04:40:50;;;;;;;3.35;1.67;;;6.30;99.90;;;;;;5068372;28;20025;-50
2024/01/11 04:43:16;;;;;;;5.28;1.58;;;6.30;99.90;;;;;;5067123;28;20029;-53
2024/01/11 04:45:42;;;;;;;8.18;1.38;;;6.30;99.90;;;;;;5067954;28;20048;-50
2024/01/11 04:48:07;;;;;;;4.97;1.30;;;6.30;99.90;;;;;;5066526;28;20033;-52
2024/01/11 04:50:33;;;;;;;4.95;1.48;;;6.30;99.90;;;;;;5067045;28;20032;-52
2024/01/11 04:52:59;;;;;;;5.28;1.30;;;6.20;99.90;;;;;;5068098;28;20044;-52
2024/01/11 04:55:24;;;;;;;5.45;1.40;;;6.30;99.90;;;;;;5066789;28;20029;-52
2024/01/11 04:57:50;;;;;;;4.85;1.10;;;6.20;99.90;;;;;;5067791;28;20037;-50
2024/01/11 05:00:16;;;;;;;7.47;1.20;;;6.20;99.90;;;;;;5067907;28;20044;-53
2024/01/11 05:02:42;;;;;;;4.28;1.30;;;6.20;99.90;;;;;;5066913;28;20024;-53
2024/01/11 05:05:07;;;;;;;3.17;1.30;;;6.20;99.90;;;;;;5067907;28;20063;-51
2024/01/11 05:07:34;;;;;;;2.90;1.20;;;6.20;99.90;;;;;;5067742;28;20040;-53
2024/01/11 05:10:00;;;;;;;5.47;1.20;;;6.20;99.90;;;;;;5067577;28;20021;-53
2024/01/11 05:12:25;;;;;;;6.88;1.20;;;6.20;99.90;;;;;;5067312;28;20317;-54
2024/01/11 05:14:51;;;;;;;4.65;1.45;;;6.30;99.90;;;;;;5066229;28;20049;-53
2024/01/11 05:17:17;;;;;;;5.20;1.30;;;6.20;99.90;;;;;;5066667;28;20088;-53
2024/01/11 05:19:42;;;;;;;7.20;1.15;;;6.30;99.90;;;;;;5067504;28;20033;-53
2024/01/11 05:22:08;;;;;;;3.90;1.20;;;6.30;99.90;;;;;;5067614;28;20056;-54
2024/01/11 05:24:34;;;;;;;3.08;1.15;;;6.30;99.90;;;;;;5067521;28;20033;-52
2024/01/11 05:26:59;;;;;;;3.45;1.08;;;6.30;99.90;;;;;;5067419;28;20091;-51
2024/01/11 05:29:25;;;;;;;4.25;1.13;;;6.30;99.90;;;;;;5066248;28;20028;-54
2024/01/11 05:31:51;;;;;;;6.20;1.27;;;6.30;99.90;;;;;;5067310;28;20283;-53
2024/01/11 05:34:16;;;;;;;4.15;1.70;;;6.30;99.90;;;;;;5066051;28;20025;-53
2024/01/11 05:36:42;;;;;;;4.60;1.60;;;6.30;99.90;;;;;;5049687;28;20052;-53
2024/01/11 05:39:07;;;;;;;6.88;1.35;;;6.30;99.90;;;;;;5067266;28;20033;-54
2024/01/11 05:41:33;;;;;;;2.70;1.30;;;6.30;99.90;;;;;;5066959;28;20013;-53
2024/01/11 05:43:59;;;;;;;5.13;1.30;;;6.30;99.90;;;;;;5066907;28;20078;-52
2024/01/11 05:46:24;;;;;;;5.07;1.58;;;6.30;99.90;;;;;;5067081;28;20333;-53
2024/01/11 05:48:50;;;;;;;4.57;1.55;;;6.20;99.90;;;;;;5067033;28;20075;-55
2024/01/11 05:51:16;;;;;;;5.35;1.25;;;6.20;99.90;;;;;;5066643;28;20131;-51
2024/01/11 05:53:41;;;;;;;2.95;1.27;;;6.20;99.90;;;;;;5066249;28;20036;-51
2024/01/11 05:56:08;;;;;;;5.45;1.33;;;6.20;99.90;;;;;;5065879;28;20086;-53
2024/01/11 05:58:34;;;;;;;3.88;1.50;;;6.20;99.90;;;;;;5065456;28;20152;-51
2024/01/11 06:01:00;;;;;;;2.85;1.10;;;6.20;99.90;;;;;;5066616;28;20040;-53
2024/01/11 06:03:25;;;;;;;6.03;1.33;;;6.20;99.90;;;;;;5048929;28;20025;-53
2024/01/11 06:05:51;;;;;;;4.20;1.40;;;6.20;99.90;;;;;;5066878;28;20044;-51
2024/01/11 06:08:17;;;;;;;8.27;2.13;;;6.20;99.90;;;;;;5065575;28;20033;-52
2024/01/11 06:10:42;;;;;;;3.15;1.08;;;6.20;99.90;;;;;;5066609;28;20139;-53
2024/01/11 06:13:09;;;;;;;7.65;1.85;;;6.20;99.90;;;;;;5065572;28;20033;-53
2024/01/11 06:15:35;;;;;;;4.78;1.50;;;6.20;99.90;;;;;;5066201;28;20187;-50
2024/01/11 06:18:00;;;;;;;8.10;1.77;;;6.20;99.90;;;;;;5048457;28;20021;-53
2024/01/11 06:20:26;;;;;;;5.10;1.50;;;6.20;99.90;;;;;;5048696;28;20079;-53
2024/01/11 06:22:52;;;;;;;6.65;1.67;;;6.20;99.90;;;;;;5048761;28;20033;-54
2024/01/11 06:25:18;;;;;;;4.75;1.42;;;6.20;99.90;;;;;;5065072;28;20027;-52
2024/01/11 06:27:44;;;;;;;7.25;1.60;;;6.20;99.90;;;;;;5065977;28;20228;-52
2024/01/11 06:30:10;;;;;;;6.30;1.50;;;6.20;99.90;;;;;;5065202;28;20037;-52
2024/01/11 06:32:36;;;;;;;5.82;1.75;;;6.20;99.90;;;;;;5065639;28;20037;-52
2024/01/11 06:35:02;;;;;;;7.78;1.90;;;6.20;99.90;;;;;;5066056;28;20033;-52
2024/01/11 06:37:28;;;;;;;9.93;2.25;;;6.30;99.90;;;;;;5066196;28;20032;-53
2024/01/11 06:39:54;;;;;;;4.28;1.55;;;6.30;99.90;;;;;;5065226;28;20028;-53
2024/01/11 06:42:19;;;;;;;3.90;1.30;;;6.30;99.90;;;;;;5064886;28;20221;-53
2024/01/11 06:44:45;;;;;;;5.70;2.00;;;6.30;99.90;;;;;;5065944;28;20037;-53
2024/01/11 06:47:11;;;;;;;4.68;1.60;;;6.30;99.90;;;;;;5064780;28;20036;-55
2024/01/11 06:49:39;;;;;;;6.55;1.98;;;6.30;99.90;;;;;;5065854;28;20086;-53
2024/01/11 06:52:05;;;;;;;7.05;1.80;;;6.30;99.90;;;;;;5064479;28;20041;-53
2024/01/11 06:54:32;;;;;;;8.07;2.22;;;6.40;99.90;;;;;;5065761;28;20043;-53
2024/01/11 06:56:57;;;;;;;4.68;1.73;;;6.30;99.90;;;;;;5065766;28;20024;-53
2024/01/11 06:59:23;;;;;;;5.95;1.63;;;6.30;99.90;;;;;;5065622;28;20025;-54
2024/01/11 07:01:49;;;;;;;7.57;1.83;;;6.30;99.90;;;;;;5064618;28;20397;-53
2024/01/11 07:04:15;;;;;;;3.97;1.40;;;6.30;99.90;;;;;;5064424;28;20060;-53
2024/01/11 07:06:40;;;;;;;5.32;1.55;;;6.30;99.90;;;;;;5064329;28;20394;-53
2024/01/11 07:09:06;;;;;;;4.65;1.38;;;6.30;99.90;;;;;;5065693;28;20033;-53
2024/01/11 07:11:32;;;;;;;4.60;1.60;;;6.30;99.90;;;;;;5065153;28;20019;-53
2024/01/11 07:13:58;;;;;;;6.07;2.05;;;6.30;99.90;;;;;;5065166;28;20032;-53
2024/01/11 07:16:24;;;;;;;8.18;2.28;;;6.30;99.90;;;;;;5065300;28;20028;-53
2024/01/11 07:18:49;;;;;;;7.18;2.03;;;6.30;99.90;;;;;;5064874;28;20039;-54
2024/01/11 07:21:29;;;;;;;5.30;2.10;;;6.30;99.90;;;;;;5065124;28;20083;-54
2024/01/11 07:23:56;;;;;;;5.07;1.60;;;6.30;99.90;;;;;;5065267;28;20096;-54
2024/01/11 07:26:23;;;;;;;9.70;2.33;;;6.30;99.90;;;;;;5065360;28;20029;-52
2024/01/11 07:28:49;;;;;;;7.70;1.50;;;6.30;99.90;;;;;;5064429;28;20032;-54
2024/01/11 07:31:15;;;;;;;5.97;1.40;;;6.30;99.90;;;;;;5065476;28;20029;-54
2024/01/11 07:33:40;;;;;;;4.60;2.55;;;6.30;99.90;;;;;;5064332;28;20048;-53
2024/01/11 07:36:06;;;;;;;6.45;2.42;;;6.30;99.90;;;;;;5064937;28;20063;-54
2024/01/11 07:38:32;;;;;;;6.05;1.60;;;6.30;99.90;;;;;;5064918;28;20091;-53
2024/01/11 07:40:58;;;;;;;5.90;1.67;;;6.20;99.90;;;;;;5064227;28;20064;-53
2024/01/11 07:43:23;;;;;;;2.00;1.10;;;6.20;99.90;;;;;;5065135;28;20074;-53
2024/01/11 07:45:50;;;;;;;8.00;1.60;;;6.20;99.90;;;;;;5065127;28;20266;-53
2024/01/11 07:48:15;;;;;;;3.38;1.40;;;6.20;99.90;;;;;;5065109;28;20039;-54
2024/01/11 07:50:41;;;;;;;4.60;1.38;;;6.30;99.90;;;;;;5065146;28;20033;-54
2024/01/11 07:53:07;;;;;;;5.70;1.75;;;6.30;99.90;;;;;;5064763;28;20318;-53
2024/01/11 07:55:32;;;;;;;3.80;1.58;;;6.30;99.90;;;;;;5064829;28;20040;-52
2024/01/11 07:57:58;;;;;;;4.10;1.52;;;6.30;99.90;;;;;;5064864;28;20028;-54
2024/01/11 08:00:24;;;;;;;6.05;1.40;;;6.30;99.90;;;;;;5065128;28;20274;-53
2024/01/11 08:02:49;;;;;;;6.50;1.80;;;6.30;99.90;;;;;;5064066;28;20178;-54
2024/01/11 08:05:15;;;;;;;4.97;1.88;;;6.30;99.90;;;;;;5063533;28;20029;-52
2024/01/11 08:07:44;;;;;;;4.50;1.40;;;6.20;99.90;;;;;;5063827;28;20044;-53
2024/01/11 08:10:10;;;;;;;4.25;1.40;;;6.30;99.90;;;;;;5064757;28;20044;-52
2024/01/11 08:12:36;;;;;;;3.05;1.25;;;6.30;99.90;;;;;;5064461;28;20151;-53
2024/01/11 08:15:03;;;;;;;3.35;1.27;;;6.20;99.90;;;;;;5063560;28;20090;-54
2024/01/11 08:17:28;;;;;;;5.97;1.67;;;6.20;99.90;;;;;;5064527;28;20341;-53
2024/01/11 08:19:56;;;;;;;2.83;1.20;;;6.30;99.90;;;;;;5064908;28;20080;-53
2024/01/11 08:22:22;;;;;;;6.55;1.80;;;6.20;99.90;;;;;;5065559;28;20025;-55
2024/01/11 08:24:48;;;;;;;5.78;1.30;;;6.20;99.90;;;;;;5050571;28;20244;-53
2024/01/11 08:27:17;;;;;;;4.85;1.20;;;6.20;99.90;;;;;;5067619;28;20048;-53
2024/01/11 08:29:43;;;;;;;6.65;1.52;;;6.20;99.90;;;;;;5068066;28;20025;-53
2024/01/11 08:32:09;;;;;;;4.68;1.23;;;6.20;99.90;;;;;;5068768;28;20040;-53
2024/01/11 08:34:34;;;;;;;9.95;1.45;;;6.20;99.90;;;;;;5068219;28;20021;-53
2024/01/11 08:37:00;;;;;;;3.13;1.25;;;6.20;99.90;;;;;;5068234;28;20033;-53
2024/01/11 08:39:26;;;;;;;5.70;1.38;;;6.20;99.90;;;;;;5067894;28;20035;-53
2024/01/11 08:41:52;;;;;;;6.55;2.03;;;6.20;99.90;;;;;;5067332;28;20024;-52
2024/01/11 08:44:18;;;;;;;3.95;1.48;;;6.20;99.90;;;;;;5066779;28;20036;-53
2024/01/11 08:46:44;;;;;;;8.20;1.88;;;6.20;99.90;;;;;;5067729;28;20033;-53
2024/01/11 08:49:09;;;;;;;5.05;1.52;;;6.20;99.90;;;;;;5067758;28;20080;-53
2024/01/11 08:51:35;;;;;;;8.07;1.40;;;6.20;99.90;;;;;;5066690;28;20016;-53
2024/01/11 08:54:01;;;;;;;4.68;1.40;;;6.20;99.90;;;;;;5067514;28;20040;-55
2024/01/11 08:56:27;;;;;;;7.80;3.15;;;6.20;99.90;;;;;;5067412;28;20047;-55
2024/01/11 08:58:53;;;;;;;3.85;1.42;;;6.20;99.90;;;;;;5066733;28;20195;-55
2024/01/11 09:01:19;;;;;;;3.63;1.83;;;6.20;99.90;;;;;;5067229;28;20036;-54
2024/01/11 09:03:47;;;;;;;4.00;1.17;;;6.20;99.90;;;;;;5067444;28;20025;-54
2024/01/11 09:06:13;;;;;;;3.75;1.60;;;6.20;99.90;;;;;;5067108;28;20028;-54
2024/01/11 09:08:41;;;;;;;3.33;1.20;;;6.20;99.90;;;;;;5067633;28;20195;-54
2024/01/11 09:11:06;;;;;;;4.07;1.25;;;6.20;99.90;;;;;;5067522;28;20037;-55
2024/01/11 09:13:32;;;;;;;5.10;1.20;;;6.20;99.90;;;;;;5067653;28;20067;-56
2024/01/11 09:15:58;;;;;;;2.97;1.50;;;6.30;99.90;;;;;;5066704;28;20067;-55
2024/01/11 09:18:23;;;;;;;3.30;1.52;;;6.30;99.90;;;;;;5067204;28;20021;-55
2024/01/11 09:20:49;;;;;;;7.78;1.50;;;6.30;99.90;;;;;;5066995;28;20143;-53
2024/01/11 09:23:15;;;;;;;4.35;1.33;;;6.30;99.90;;;;;;5067014;28;20029;-54
2024/01/11 09:25:41;;;;;;;3.38;1.20;;;6.30;99.90;;;;;;5066921;28;20078;-56
2024/01/11 09:28:07;;;;;;;8.45;2.55;;;6.30;99.90;;;;;;5065845;28;20033;-55
2024/01/11 09:30:33;;;;;;;17.23;5.85;;;6.30;99.90;;;;;;5066772;28;20040;-54
2024/01/11 09:32:58;;;;;;;8.98;2.65;;;6.90;99.90;;;;;;5066030;28;20182;-55
2024/01/11 09:35:24;;;;;;;6.50;2.63;;;7.90;99.90;;;;;;5066085;28;20052;-54
2024/01/11 09:37:50;;;;;;;5.00;1.85;;;8.60;99.90;;;;;;5067261;28;20282;-55
2024/01/11 09:40:17;;;;;;;3.88;1.42;;;9.00;99.90;;;;;;5065956;28;20017;-54
2024/01/11 09:42:43;;;;;;;1.30;1.05;;;9.10;99.90;;;;;;5067103;28;20030;-54
2024/01/11 09:45:15;;;;;;;5.28;1.00;;;9.00;99.90;;;;;;5066753;28;20039;-53
2024/01/11 09:47:41;;;;;;;2.72;1.05;;;9.20;99.90;;;;;;5066543;28;20040;-54
2024/01/11 09:50:07;;;;;;;1.35;1.00;;;9.20;99.90;;;;;;5066597;28;20088;-54
2024/01/11 09:52:33;;;;;;;3.40;1.13;;;9.30;99.90;;;;;;5066589;28;20037;-54
2024/01/11 09:54:59;;;;;;;1.20;0.90;;;9.50;99.90;;;;;;5066425;28;20050;-55
2024/01/11 09:57:28;;;;;;;3.53;1.05;;;9.60;99.90;;;;;;5066875;28;20029;-54
2024/01/11 09:59:55;;;;;;;2.55;1.10;;;8.70;99.90;;;;;;5065845;28;20155;-54
2024/01/11 10:02:21;;;;;;;4.38;1.42;;;7.90;99.90;;;;;;5066082;28;20024;-54
2024/01/11 10:04:47;;;;;;;3.15;1.40;;;7.40;99.90;;;;;;5049099;28;20024;-54
2024/01/11 10:07:13;;;;;;;2.28;1.05;;;7.20;99.90;;;;;;5048779;28;20048;-54
2024/01/11 10:09:38;;;;;;;2.95;1.10;;;7.20;99.90;;;;;;5065713;28;20178;-54
2024/01/11 10:12:05;;;;;;;2.38;1.10;;;7.10;99.90;;;;;;5066214;28;20032;-54
2024/01/11 10:14:31;;;;;;;2.58;1.40;;;7.00;99.90;;;;;;5065680;28;20056;-53
2024/01/11 10:16:57;;;;;;;2.03;1.30;;;7.00;99.90;;;;;;5065997;28;20021;-54
2024/01/11 10:19:23;;;;;;;2.63;1.40;;;7.10;99.90;;;;;;5065834;28;20088;-54
2024/01/11 10:21:48;;;;;;;4.43;1.30;;;7.10;99.90;;;;;;5064883;28;20041;-55
2024/01/11 10:24:20;;;;;;;2.40;1.20;;;7.20;99.90;;;;;;5064806;28;20175;-54
2024/01/11 10:26:45;;;;;;;3.55;1.30;;;7.30;99.90;;;;;;5065258;28;20025;-55
2024/01/11 10:29:12;;;;;;;4.65;2.17;;;7.30;99.90;;;;;;5066150;28;20286;-54
2024/01/11 10:31:38;;;;;;;3.10;1.30;;;7.30;99.90;;;;;;5065736;28;20036;-53
2024/01/11 10:34:05;;;;;;;3.80;1.08;;;7.30;99.90;;;;;;5065724;28;20144;-55
2024/01/11 10:36:33;;;;;;;3.20;1.70;;;7.30;99.90;;;;;;5065778;28;20052;-53
2024/01/11 10:39:01;;;;;;;3.53;1.60;;;7.40;99.90;;;;;;5065645;28;20052;-53
2024/01/11 10:41:27;;;;;;;2.70;1.25;;;7.40;99.90;;;;;;5064498;28;20029;-54
2024/01/11 10:43:52;;;;;;;5.47;1.20;;;7.40;99.90;;;;;;5064541;28;20047;-53
2024/01/11 10:46:19;;;;;;;3.78;1.40;;;7.50;99.90;;;;;;5064685;28;20348;-54
2024/01/11 10:48:45;;;;;;;3.17;1.13;;;7.60;99.90;;;;;;5048042;28;20135;-51
2024/01/11 10:51:12;;;;;;;3.80;1.02;;;7.50;99.90;;;;;;5064570;28;20047;-55
2024/01/11 10:53:40;;;;;;;2.78;1.30;;;7.50;99.90;;;;;;5064580;28;20024;-54
2024/01/11 10:56:09;;;;;;;2.70;1.23;;;7.50;99.90;;;;;;5064275;28;20044;-53
2024/01/11 10:58:35;;;;;;;4.20;1.10;;;7.40;99.90;;;;;;5064491;28;20070;-53
2024/01/11 11:01:01;;;;;;;4.65;1.70;;;7.40;99.90;;;;;;5064380;28;20029;-52
2024/01/11 11:03:28;;;;;;;5.07;1.48;;;7.40;99.90;;;;;;5064411;28;20020;-53
2024/01/11 11:05:55;;;;;;;5.95;2.38;;;7.50;99.90;;;;;;5064929;28;20037;-51
2024/01/11 11:08:22;;;;;;;2.83;1.08;;;7.60;99.90;;;;;;5063945;28;20092;-53
2024/01/11 11:10:48;;;;;;;2.92;1.40;;;7.50;99.90;;;;;;5064217;28;20028;-51
2024/01/11 11:13:14;;;;;;;4.05;1.30;;;7.50;99.90;;;;;;5063821;28;20060;-53
2024/01/11 11:15:41;;;;;;;2.90;0.98;;;7.60;99.90;;;;;;5064762;28;20256;-54
2024/01/11 11:18:07;;;;;;;2.35;1.27;;;7.60;99.90;;;;;;5063795;28;20066;-54
2024/01/11 11:20:32;;;;;;;1.73;1.23;;;7.60;99.90;;;;;;5064987;28;20177;-54
2024/01/11 11:23:05;;;;;;;3.92;1.20;;;7.60;99.90;;;;;;5063786;28;20106;-53
2024/01/11 11:25:31;;;;;;;5.38;1.40;;;7.60;99.90;;;;;;5063695;28;20100;-54
2024/01/11 11:27:58;;;;;;;3.40;1.30;;;7.60;99.90;;;;;;5063832;28;20037;-53
2024/01/11 11:30:24;;;;;;;1.95;1.35;;;7.50;99.90;;;;;;5064087;28;20051;-52
2024/01/11 11:32:50;;;;;;;3.85;1.42;;;7.50;99.90;;;;;;5065013;28;20171;-53
2024/01/11 11:35:15;;;;;;;2.35;0.90;;;7.50;99.90;;;;;;5064424;28;20041;-53
2024/01/11 11:37:42;;;;;;;3.60;1.63;;;7.50;99.90;;;;;;5065048;28;20198;-53
2024/01/11 11:40:10;;;;;;;2.65;1.25;;;7.50;99.90;;;;;;5065196;28;20025;-54
2024/01/11 11:42:36;;;;;;;2.33;1.40;;;7.50;99.90;;;;;;5063827;28;20063;-54
2024/01/11 11:45:01;;;;;;;2.28;1.35;;;7.60;99.90;;;;;;5064983;28;20025;-55
2024/01/11 11:47:37;;;;;;;2.25;1.13;;;7.60;99.90;;;;;;5063922;28;20028;-54
2024/01/11 11:50:09;;;;;;;4.80;1.48;;;7.60;99.90;;;;;;5064801;28;20041;-54
2024/01/11 11:52:37;;;;;;;3.65;1.88;;;7.70;99.90;;;;;;5064942;28;20024;-53
2024/01/11 11:55:03;;;;;;;3.10;1.30;;;7.80;99.90;;;;;;5063748;28;20043;-54
2024/01/11 11:57:29;;;;;;;6.43;1.25;;;7.90;99.90;;;;;;5048625;28;20029;-54
2024/01/11 11:59:57;;;;;;;6.30;1.45;;;7.90;99.90;;;;;;5068829;28;20100;-54
2024/01/11 12:02:23;;;;;;;2.22;1.40;;;7.90;99.90;;;;;;5068441;28;20025;-54
2024/01/11 12:04:48;;;;;;;4.20;1.60;;;8.10;99.90;;;;;;5067641;28;20033;-54
2024/01/11 12:07:15;;;;;;;2.55;1.20;;;8.30;99.90;;;;;;5068152;28;20052;-53
2024/01/11 12:09:41;;;;;;;3.42;1.30;;;8.40;99.90;;;;;;5067276;28;20048;-53
2024/01/11 12:12:07;;;;;;;2.30;1.20;;;8.30;99.90;;;;;;5068198;28;20275;-53
2024/01/11 12:14:34;;;;;;;3.08;1.23;;;8.20;99.90;;;;;;5066930;28;20370;-53
2024/01/11 12:16:59;;;;;;;4.80;1.10;;;8.10;99.90;;;;;;5068103;28;20278;-54
2024/01/11 12:19:25;;;;;;;2.30;1.40;;;8.30;99.90;;;;;;5050273;28;20033;-54
2024/01/11 12:21:51;;;;;;;5.72;1.63;;;8.20;99.90;;;;;;5067067;28;20040;-54
2024/01/11 12:24:17;;;;;;;7.57;3.78;;;8.20;99.90;;;;;;5066892;28;20056;-52
2024/01/11 12:26:46;;;;;;;5.03;2.40;;;8.20;99.90;;;;;;5068204;28;20089;-54
2024/01/11 12:29:12;;;;;;;5.70;1.80;;;8.20;99.90;;;;;;5067010;28;20100;-54
2024/01/11 12:31:38;;;;;;;4.35;1.90;;;8.00;99.90;;;;;;5066877;28;20036;-54
2024/01/11 12:34:03;;;;;;;6.40;1.90;;;8.00;99.90;;;;;;5068015;28;20025;-53
2024/01/11 12:36:29;;;;;;;4.18;1.77;;;7.90;99.90;;;;;;5050199;28;20084;-53
2024/01/11 12:38:55;;;;;;;5.55;1.50;;;7.80;99.90;;;;;;5067810;28;20091;-53
2024/01/11 12:41:23;;;;;;;6.30;4.53;;;7.70;99.90;;;;;;5067591;28;20020;-55
2024/01/11 12:43:49;;;;;;;4.38;2.08;;;7.90;99.90;;;;;;5067938;28;20055;-54
2024/01/11 12:46:15;;;;;;;6.75;2.50;;;7.90;99.90;;;;;;5066615;28;20033;-53
2024/01/11 12:48:41;;;;;;;5.43;1.60;;;8.00;99.90;;;;;;5067928;28;20032;-53
2024/01/11 12:51:08;;;;;;;5.45;3.85;;;7.90;99.90;;;;;;5067821;28;20045;-53